Cotter, Arkansas
Current Conditions -  °F | °C
As of 12:15 PM on Thursday 23 Oct 2014 (Local Time) from KFLP Reporting Station
Overcast Overcast  
Wind Chill: 55°   Ceiling: 500
Heat Index: 55°   Visibility: 0.75mi
Dew Point: 45°   Wind: 5mph
Humidity: 67%   Direction: 110°ESE
Pressure: 30.2"   Gusts: NA
Location:  36.27°N, 92.54°W
Report Text: KFLP 231715Z AUTO 11004KT 3/4SM VV005 13/07 A3020 RMK AO1
Loading
Personal Weather Stations






























Interactive Weather Map
Tropical Storm Tracking
New forecast layout! Learn more

10-Day Weather Forecast

Advertisements
Track Severe Weather on mobile